Time;durP1;ratioP1;P1;durP2;ratioP2;P2;SDS_P1;SDS_P2;PMS_P1;PMS_P2;Temp;Humidity;BMP_temperature;BMP_pressure;BME280_temperature;BME280_humidity;BME280_pressure;Samples;Min_cycle;Max_cycle;Signal;HPM_P1;HPM_P2
2023/05/11 00:00:03;;;;;;;8.77;5.72;;;;;;;9.85;67.41;94070.88;5004083;28;20006;-86
2023/05/11 00:02:29;;;;;;;8.63;5.70;;;;;;;9.83;67.66;94070.38;4986557;28;20328;-84
2023/05/11 00:04:54;;;;;;;9.52;5.85;;;;;;;9.82;67.59;94066.94;4986125;28;20332;-86
2023/05/11 00:07:20;;;;;;;10.20;6.15;;;;;;;9.79;67.55;94070.22;5003396;28;20198;-85
2023/05/11 00:09:46;;;;;;;8.63;6.30;;;;;;;9.75;67.71;94071.91;5003654;28;20038;-86
2023/05/11 00:12:12;;;;;;;9.82;6.53;;;;;;;9.76;67.70;94075.34;5003515;28;20068;-87
2023/05/11 00:14:39;;;;;;;11.70;6.07;;;;;;;9.78;67.93;94076.59;4986458;28;20022;-86
2023/05/11 00:17:04;;;;;;;9.23;6.22;;;;;;;9.78;67.77;94073.94;5003369;28;20022;-85
2023/05/11 00:19:30;;;;;;;11.95;6.03;;;;;;;9.79;67.88;94078.19;5003434;28;20022;-86
2023/05/11 00:21:57;;;;;;;10.32;6.18;;;;;;;9.79;67.68;94080.84;5003434;28;20109;-86
2023/05/11 00:24:23;;;;;;;8.77;6.47;;;;;;;9.78;67.66;94084.59;5003031;28;20036;-86
2023/05/11 00:26:49;;;;;;;7.93;5.97;;;;;;;9.78;67.80;94078.50;5003642;28;20026;-86
2023/05/11 00:29:14;;;;;;;9.65;6.50;;;;;;;9.75;67.16;94074.56;5003735;28;20069;-86
2023/05/11 00:31:40;;;;;;;12.48;7.90;;;;;;;9.71;67.54;94078.09;5003260;28;20050;-86
2023/05/11 00:34:06;;;;;;;13.20;8.40;;;;;;;9.67;67.45;94077.94;5003278;28;20026;-86
2023/05/11 00:36:32;;;;;;;12.93;8.27;;;;;;;9.64;67.78;94083.84;5003148;28;20033;-86
2023/05/11 00:38:57;;;;;;;9.38;7.45;;;;;;;9.62;67.83;94092.13;5003007;28;20372;-86
2023/05/11 00:41:23;;;;;;;10.82;8.05;;;;;;;9.60;67.72;94086.31;5003427;28;20040;-86
2023/05/11 00:43:48;;;;;;;10.60;7.68;;;;;;;9.58;67.81;94085.84;4985952;28;20412;-86
2023/05/11 00:46:14;;;;;;;9.63;7.32;;;;;;;9.53;67.94;94088.63;5003394;28;20022;-85
2023/05/11 00:48:39;;;;;;;11.27;8.45;;;;;;;9.56;67.93;94103.97;5002962;28;20224;-85
2023/05/11 00:51:05;;;;;;;12.60;7.85;;;;;;;9.59;68.60;94102.63;5003186;28;20379;-84
2023/05/11 00:53:31;;;;;;;14.23;8.38;;;;;;;9.58;68.34;94091.16;5003198;28;20057;-85
2023/05/11 00:55:57;;;;;;;10.00;7.60;;;;;;;9.56;69.17;94093.34;5007215;28;20029;-85
2023/05/11 00:58:24;;;;;;;11.68;7.97;;;;;;;9.53;68.82;94098.50;5006717;28;20026;-86
2023/05/11 01:00:50;;;;;;;10.60;8.20;;;;;;;9.50;68.74;94093.75;5006270;28;20018;-86
2023/05/11 01:03:16;;;;;;;11.70;8.00;;;;;;;9.49;68.63;94089.53;5006604;28;20070;-86
2023/05/11 01:05:51;;;;;;;14.38;7.72;;;;;;;9.48;68.65;94093.28;5006429;28;20026;-86
2023/05/11 01:08:28;;;;;;;8.95;6.80;;;;;;;9.42;68.68;94093.41;5006514;28;20030;-86
2023/05/11 01:11:05;;;;;;;11.20;7.43;;;;;;;9.37;68.86;94095.38;5006547;28;20030;-85
2023/05/11 01:13:40;;;;;;;12.23;7.57;;;;;;;9.31;69.01;94088.59;4989694;28;20030;-86
2023/05/11 01:16:14;;;;;;;10.20;7.80;;;;;;;9.25;68.98;94085.25;4989535;28;20097;-86
2023/05/11 01:19:00;;;;;;;14.07;7.03;;;;;;;9.24;68.92;94096.97;5006269;28;20140;-87
2023/05/11 01:21:32;;;;;;;13.48;7.28;;;;;;;9.18;69.15;94092.81;5006087;28;20324;-86
2023/05/11 01:24:03;;;;;;;9.80;6.43;;;;;;;9.17;69.15;94096.59;5006624;28;20032;-85
2023/05/11 01:26:31;;;;;;;12.40;7.23;;;;;;;9.20;69.17;94085.38;5006703;28;20313;-85
2023/05/11 01:29:33;;;;;;;11.10;7.30;;;;;;;9.13;69.09;94085.75;5006580;28;20275;-85
2023/05/11 01:32:03;;;;;;;12.05;6.65;;;;;;;9.12;69.25;94097.47;4991849;28;20038;-86
2023/05/11 01:34:33;;;;;;;12.18;6.35;;;;;;;9.07;69.29;94089.59;5005817;28;20022;-85
2023/05/11 01:37:11;;;;;;;9.10;6.55;;;;;;;9.15;68.95;94093.44;5006239;28;20018;-85
2023/05/11 01:40:00;;;;;;;9.95;6.47;;;;;;;9.13;69.00;94088.41;5005975;28;20030;-85
2023/05/11 01:42:31;;;;;;;9.43;6.22;;;;;;;9.19;68.54;94087.22;4988499;28;20026;-85
2023/05/11 01:44:59;;;;;;;8.10;5.93;;;;;;;9.15;68.25;94086.25;5006263;28;20219;-86
2023/05/11 01:47:29;;;;;;;12.70;5.63;;;;;;;9.14;68.40;94089.19;5005819;28;20271;-86
2023/05/11 01:49:56;;;;;;;10.45;6.30;;;;;;;9.19;68.13;94081.13;5005159;28;20382;-86
2023/05/11 01:52:24;;;;;;;10.32;6.20;;;;;;;9.21;68.00;94084.25;5005595;28;20072;-86
2023/05/11 01:54:53;;;;;;;15.45;6.30;;;;;;;9.22;67.99;94091.16;5006087;28;20030;-86
2023/05/11 01:57:20;;;;;;;9.60;6.63;;;;;;;9.21;67.85;94081.59;5005768;28;20295;-85
2023/05/11 01:59:48;;;;;;;8.18;5.65;;;;;;;9.27;68.03;94084.94;5005552;28;20260;-85
2023/05/11 02:02:14;;;;;;;7.82;6.03;;;;;;;9.26;68.07;94084.16;5005456;28;20034;-85
2023/05/11 02:04:41;;;;;;;9.38;5.32;;;;;;;9.28;67.78;94082.00;5005726;28;20030;-85
2023/05/11 02:07:10;;;;;;;7.10;5.05;;;;;;;9.30;67.57;94073.69;4988612;28;20052;-86
2023/05/11 02:09:37;;;;;;;17.75;5.72;;;;;;;9.29;67.61;94072.91;5005749;28;20080;-85
2023/05/11 02:12:05;;;;;;;9.45;6.35;;;;;;;9.33;67.46;94079.22;5005424;28;20053;-85
2023/05/11 02:14:35;;;;;;;8.95;5.53;;;;;;;9.36;67.06;94083.94;5006060;28;20025;-86
2023/05/11 02:17:02;;;;;;;12.05;5.90;;;;;;;9.38;67.02;94073.81;5005911;28;20026;-85
2023/05/11 02:19:36;;;;;;;6.30;5.03;;;;;;;9.35;66.94;94078.94;5006094;28;20044;-85
2023/05/11 02:22:04;;;;;;;11.65;5.78;;;;;;;9.34;66.66;94075.47;5005530;28;20094;-85
2023/05/11 02:24:30;;;;;;;7.95;6.05;;;;;;;9.29;66.52;94067.59;5005690;28;20031;-85
2023/05/11 02:26:57;;;;;;;6.85;5.38;;;;;;;9.28;66.54;94075.88;5005904;28;20085;-85
2023/05/11 02:29:23;;;;;;;8.23;5.43;;;;;;;9.29;66.42;94056.97;5005269;28;20022;-84
2023/05/11 02:31:55;;;;;;;10.75;5.22;;;;;;;9.28;66.51;94063.38;5005328;28;20317;-85
2023/05/11 02:34:25;;;;;;;10.00;5.30;;;;;;;9.25;66.45;94071.94;5005256;28;20064;-86
2023/05/11 02:36:58;;;;;;;6.55;5.05;;;;;;;9.26;66.28;94068.22;5005323;28;20030;-84
2023/05/11 02:39:31;;;;;;;7.18;5.35;;;;;;;9.26;66.14;94068.22;5005127;28;20018;-85
2023/05/11 02:41:59;;;;;;;7.25;5.30;;;;;;;9.26;65.81;94072.72;5005307;28;20026;-84
2023/05/11 02:44:31;;;;;;;6.05;4.72;;;;;;;9.29;65.40;94072.91;5005033;28;20097;-84
2023/05/11 02:47:01;;;;;;;9.77;5.30;;;;;;;9.22;65.62;94072.56;5005582;28;20042;-86
2023/05/11 02:49:29;;;;;;;9.38;5.68;;;;;;;9.16;66.05;94073.72;5005209;28;20244;-84
2023/05/11 02:51:56;;;;;;;7.75;5.55;;;;;;;9.15;66.22;94074.81;5005136;28;20073;-84
2023/05/11 02:54:23;;;;;;;11.68;5.38;;;;;;;9.17;66.12;94076.09;5005001;28;20125;-84
2023/05/11 02:56:50;;;;;;;8.05;4.80;;;;;;;9.10;66.35;94070.41;5004891;28;20053;-84
2023/05/11 02:59:16;;;;;;;10.38;5.68;;;;;;;9.03;66.37;94078.75;5004852;28;20018;-84
2023/05/11 03:01:42;;;;;;;7.47;5.07;;;;;;;8.97;66.28;94076.50;4987079;28;20025;-86
2023/05/11 03:04:08;;;;;;;8.32;5.53;;;;;;;8.94;66.72;94074.47;4987923;28;20022;-85
2023/05/11 03:06:35;;;;;;;10.93;4.60;;;;;;;8.88;66.85;94068.47;5005216;28;20133;-85
2023/05/11 03:09:01;;;;;;;9.07;5.15;;;;;;;8.84;67.00;94072.78;5005212;28;20018;-85
2023/05/11 03:11:27;;;;;;;13.40;5.35;;;;;;;8.82;67.06;94069.63;5004914;28;20215;-86
2023/05/11 03:13:53;;;;;;;8.52;5.85;;;;;;;8.77;67.38;94073.19;5004605;28;20053;-84
2023/05/11 03:16:20;;;;;;;12.63;5.50;;;;;;;8.76;67.50;94071.59;5004094;28;20018;-84
2023/05/11 03:18:47;;;;;;;8.73;5.43;;;;;;;8.72;67.83;94075.16;5004718;28;20022;-85
2023/05/11 03:21:17;;;;;;;9.93;5.88;;;;;;;8.74;67.53;94079.09;5004602;28;20216;-86
2023/05/11 03:23:44;;;;;;;6.70;5.10;;;;;;;8.72;67.52;94075.16;5004864;28;20042;-86
2023/05/11 03:26:11;;;;;;;7.35;5.55;;;;;;;8.73;67.57;94074.06;5004725;28;20022;-86
2023/05/11 03:28:38;;;;;;;9.60;5.85;;;;;;;8.73;67.79;94080.19;5003424;28;20109;-86
2023/05/11 03:31:03;;;;;;;6.97;5.63;;;;;;;8.72;67.48;94075.16;4987343;28;20062;-86
2023/05/11 03:33:29;;;;;;;8.82;5.60;;;;;;;8.72;67.91;94077.81;5004549;28;20045;-85
2023/05/11 03:35:55;;;;;;;13.23;6.38;;;;;;;8.71;68.02;94073.56;5004247;28;20097;-85
2023/05/11 03:38:23;;;;;;;9.82;5.50;;;;;;;8.70;67.61;94082.63;5004620;28;20264;-86
2023/05/11 03:40:51;;;;;;;8.73;6.10;;;;;;;8.65;67.83;94080.88;5004721;28;20026;-86
2023/05/11 03:43:20;;;;;;;11.43;6.35;;;;;;;8.67;67.69;94077.91;5004718;28;20030;-86
2023/05/11 03:45:52;;;;;;;12.05;6.22;;;;;;;8.67;67.90;94088.53;5004249;28;20014;-86
2023/05/11 03:48:18;;;;;;;11.98;6.05;;;;;;;8.74;67.44;94083.63;5004529;28;20029;-85
2023/05/11 03:50:44;;;;;;;13.57;6.72;;;;;;;8.73;67.41;94088.16;5004133;28;20081;-86
2023/05/11 03:53:11;;;;;;;11.25;6.63;;;;;;;8.78;67.43;94085.38;4986899;28;20241;-85
2023/05/11 03:55:37;;;;;;;14.80;6.10;;;;;;;8.74;67.35;94081.75;5003655;28;20266;-85
2023/05/11 03:58:07;;;;;;;9.48;6.35;;;;;;;8.75;67.67;94093.97;5004121;28;20018;-84
2023/05/11 04:00:37;;;;;;;15.70;6.88;;;;;;;8.81;67.67;94089.31;5003832;28;20038;-84
2023/05/11 04:03:05;;;;;;;13.57;7.38;;;;;;;8.73;68.01;94084.69;5003922;28;20061;-87
2023/05/11 04:05:30;;;;;;;13.60;6.50;;;;;;;8.83;67.80;94087.16;5004040;28;20021;-85
2023/05/11 04:07:56;;;;;;;15.45;6.68;;;;;;;8.79;67.66;94094.13;4986419;28;20038;-85
2023/05/11 04:10:22;;;;;;;11.93;6.60;;;;;;;8.73;67.90;94096.13;5004201;28;20095;-85
2023/05/11 04:12:48;;;;;;;11.57;6.65;;;;;;;8.74;68.15;94099.56;5003986;28;20014;-84
2023/05/11 04:15:13;;;;;;;12.98;7.10;;;;;;;8.73;67.93;94090.81;5004040;28;20133;-84
2023/05/11 04:17:39;;;;;;;12.98;7.13;;;;;;;8.72;68.16;94107.81;5004009;28;20029;-84
2023/05/11 04:20:05;;;;;;;16.33;7.40;;;;;;;8.73;68.39;94105.94;5004153;28;20033;-84
2023/05/11 04:22:30;;;;;;;11.75;7.28;;;;;;;8.72;68.22;94107.03;5004373;28;20022;-85
2023/05/11 04:24:56;;;;;;;11.95;7.65;;;;;;;8.67;68.75;94107.13;5004977;28;20030;-85
2023/05/11 04:27:21;;;;;;;14.30;7.82;;;;;;;8.72;68.36;94113.13;5004174;28;20037;-84
2023/05/11 04:29:47;;;;;;;11.32;7.80;;;;;;;8.74;68.47;94115.50;5007545;28;20072;-84
2023/05/11 04:32:14;;;;;;;13.73;6.93;;;;;;;8.72;69.23;94118.47;5008745;28;20090;-83
2023/05/11 04:34:39;;;;;;;11.10;7.72;;;;;;;8.72;68.99;94128.31;5007435;28;20366;-83
2023/05/11 04:37:06;;;;;;;17.52;8.18;;;;;;;8.75;69.03;94117.06;5007513;28;20041;-84
2023/05/11 04:39:35;;;;;;;10.52;7.65;;;;;;;8.70;69.00;94109.22;5007740;28;20022;-86
2023/05/11 04:42:00;;;;;;;14.20;8.35;;;;;;;8.79;69.06;94120.72;5007996;28;20030;-86
2023/05/11 04:44:26;;;;;;;15.80;9.00;;;;;;;8.80;69.07;94109.78;5007545;28;20212;-85
2023/05/11 04:46:55;;;;;;;12.43;9.18;;;;;;;8.82;69.20;94115.59;4989862;28;20041;-86
2023/05/11 04:49:21;;;;;;;15.18;8.32;;;;;;;8.81;68.96;94108.72;5007880;28;20316;-86
2023/05/11 04:51:46;;;;;;;14.50;9.25;;;;;;;8.77;69.02;94121.03;5007585;28;20033;-86
2023/05/11 04:54:12;;;;;;;18.52;9.20;;;;;;;8.86;69.28;94118.47;5007366;28;20043;-85
2023/05/11 04:56:39;;;;;;;14.15;9.05;;;;;;;8.88;69.03;94126.94;5007764;28;20033;-86
2023/05/11 04:59:05;;;;;;;13.32;9.35;;;;;;;8.89;69.32;94120.53;4990626;28;20030;-85
2023/05/11 05:01:31;;;;;;;15.00;9.05;;;;;;;8.96;68.86;94134.22;5008391;28;20018;-85
2023/05/11 05:03:56;;;;;;;18.65;10.07;;;;;;;8.97;69.02;94132.34;4990775;28;20029;-85
2023/05/11 05:06:22;;;;;;;18.45;10.55;;;;;;;8.98;68.79;94131.28;5007204;28;20022;-85
2023/05/11 05:08:48;;;;;;;18.05;10.52;;;;;;;8.96;68.81;94128.13;5007739;28;20090;-82
2023/05/11 05:11:13;;;;;;;18.00;10.45;;;;;;;9.07;68.72;94134.81;5007174;28;20029;-83
2023/05/11 05:13:41;;;;;;;13.50;10.27;;;;;;;9.14;68.75;94150.34;5006670;28;20347;-82
2023/05/11 05:16:07;;;;;;;21.95;10.30;;;;;;;9.18;68.70;94140.69;5006872;28;20026;-82
2023/05/11 05:18:32;;;;;;;20.70;10.32;;;;;;;9.22;68.86;94147.03;4988882;28;20101;-83
2023/05/11 05:20:58;;;;;;;18.83;12.25;;;;;;;9.23;68.92;94145.94;5007086;28;20069;-84
2023/05/11 05:23:24;;;;;;;26.30;12.60;;;;;;;9.26;68.53;94136.56;5007283;28;20022;-85
2023/05/11 05:25:50;;;;;;;20.35;12.13;;;;;;;9.23;68.33;94138.72;5007023;28;20022;-85
2023/05/11 05:28:15;;;;;;;20.48;11.13;;;;;;;9.35;67.80;94146.22;5006802;28;20064;-86
2023/05/11 05:30:41;;;;;;;19.98;11.95;;;;;;;9.40;67.41;94142.66;5007622;28;20319;-85
2023/05/11 05:33:06;;;;;;;18.45;10.23;;;;;;;9.51;68.05;94148.56;4989136;28;20033;-85
2023/05/11 05:35:32;;;;;;;25.35;10.80;;;;;;;9.52;67.32;94142.13;5007520;28;20022;-87
2023/05/11 05:37:57;;;;;;;18.73;10.60;;;;;;;9.60;66.59;94144.09;5007385;28;20384;-86
2023/05/11 05:40:23;;;;;;;18.00;9.35;;;;;;;9.69;66.64;94152.94;5006314;28;20323;-86
2023/05/11 05:42:49;;;;;;;15.63;10.35;;;;;;;9.75;66.38;94154.41;5007099;28;20073;-86
2023/05/11 05:45:14;;;;;;;16.02;9.00;;;;;;;9.80;65.96;94156.94;5006897;28;20034;-83
2023/05/11 05:47:40;;;;;;;13.38;8.48;;;;;;;9.86;65.61;94144.31;5006522;28;20030;-83
2023/05/11 05:50:06;;;;;;;20.25;10.60;;;;;;;9.93;65.34;94150.03;5006302;28;20202;-84
2023/05/11 05:52:32;;;;;;;15.85;9.20;;;;;;;9.93;64.73;94152.69;4989015;28;20034;-85
2023/05/11 05:54:57;;;;;;;21.98;10.63;;;;;;;9.96;64.42;94165.38;5006650;28;20056;-85
2023/05/11 05:57:23;;;;;;;14.50;9.52;;;;;;;10.07;64.27;94162.50;5006441;28;20037;-86
2023/05/11 05:59:49;;;;;;;18.13;10.43;;;;;;;10.09;64.06;94161.09;5006930;28;20045;-87
2023/05/11 06:02:15;;;;;;;18.73;9.27;;;;;;;10.11;63.97;94156.25;5006681;28;20026;-86
2023/05/11 06:04:40;;;;;;;17.20;9.35;;;;;;;10.15;63.82;94167.88;5006278;28;20022;-85
2023/05/11 06:07:06;;;;;;;17.40;9.95;;;;;;;10.25;63.58;94162.31;4989061;28;20022;-85
2023/05/11 06:09:31;;;;;;;21.98;11.20;;;;;;;10.30;63.75;94160.63;5006345;28;20209;-87
2023/05/11 06:11:57;;;;;;;22.25;11.35;;;;;;;10.27;63.68;94161.22;4988192;28;20133;-85
2023/05/11 06:14:22;;;;;;;16.52;10.73;;;;;;;10.26;63.53;94168.44;5005853;28;20018;-84
2023/05/11 06:16:48;;;;;;;19.98;10.52;;;;;;;10.30;63.77;94169.44;5005531;28;20029;-84
2023/05/11 06:19:14;;;;;;;14.35;9.60;;;;;;;10.34;63.30;94170.41;5005645;28;20092;-83
2023/05/11 06:21:44;;;;;;;14.98;10.13;;;;;;;10.36;63.10;94172.75;5005567;28;20061;-78
2023/05/11 06:24:10;;;;;;;15.00;10.38;;;;;;;10.39;63.60;94180.16;5005466;28;20031;-78
2023/05/11 06:26:36;;;;;;;20.45;11.02;;;;;;;10.51;63.01;94188.38;5005118;28;20089;-79
2023/05/11 06:29:01;;;;;;;16.92;10.50;;;;;;;10.53;63.14;94183.53;5004631;28;20225;-79
2023/05/11 06:31:28;;;;;;;14.55;9.93;;;;;;;10.52;63.11;94181.97;5005143;28;20049;-79
2023/05/11 06:33:54;;;;;;;16.63;10.80;;;;;;;10.57;63.28;94187.16;5004562;28;20028;-79
2023/05/11 06:36:19;;;;;;;14.57;10.27;;;;;;;10.75;62.48;94176.59;5004484;28;20022;-79
2023/05/11 06:38:44;;;;;;;15.52;9.57;;;;;;;10.77;61.90;94177.88;5004562;28;20022;-79
2023/05/11 06:41:10;;;;;;;17.45;9.57;;;;;;;10.79;63.24;94188.22;5005493;28;20328;-85
2023/05/11 06:43:37;;;;;;;17.70;10.40;;;;;;;10.88;63.62;94186.38;5005936;28;20033;-86
2023/05/11 06:46:02;;;;;;;22.08;9.73;;;;;;;10.97;63.23;94176.56;4987996;28;20079;-84
2023/05/11 06:48:28;;;;;;;17.13;10.15;;;;;;;11.03;63.96;94190.53;4987849;28;20198;-85
2023/05/11 06:50:54;;;;;;;18.20;10.68;;;;;;;11.06;63.45;94183.81;5004976;28;20042;-85
2023/05/11 06:53:20;;;;;;;18.77;11.52;;;;;;;11.18;63.29;94184.78;4987549;28;20104;-85
2023/05/11 06:55:46;;;;;;;18.48;9.95;;;;;;;11.27;62.09;94190.16;5004957;28;20089;-84
2023/05/11 06:58:12;;;;;;;21.08;10.50;;;;;;;11.42;62.95;94186.28;5005072;28;20029;-88
2023/05/11 07:00:38;;;;;;;16.27;10.80;;;;;;;11.53;62.00;94184.13;5005981;28;20093;-88
2023/05/11 07:03:04;;;;;;;27.55;11.48;;;;;;;11.68;62.42;94191.66;5005796;28;20033;-86
2023/05/11 07:05:30;;;;;;;19.73;11.43;;;;;;;11.84;61.68;94187.47;4988789;28;20029;-88
2023/05/11 07:07:55;;;;;;;19.95;11.73;;;;;;;12.00;60.43;94189.72;5005579;28;20022;-87
2023/05/11 07:10:21;;;;;;;18.23;10.50;;;;;;;12.19;60.50;94192.06;5005861;28;20034;-87
2023/05/11 07:12:47;;;;;;;21.65;10.50;;;;;;;12.28;60.22;94192.88;5004428;28;20146;-86
2023/05/11 07:15:12;;;;;;;26.00;10.27;;;;;;;12.42;59.57;94195.38;5004767;28;20022;-87
2023/05/11 07:17:41;;;;;;;18.48;10.05;;;;;;;12.45;58.82;94187.50;5005323;28;20026;-87
2023/05/11 07:20:07;;;;;;;14.35;10.38;;;;;;;12.51;59.21;94188.13;5006712;28;20022;-89
2023/05/11 07:22:32;;;;;;;17.38;10.48;;;;;;;12.62;57.72;94196.63;5006913;28;20263;-91
2023/05/11 07:24:59;;;;;;;16.67;9.43;;;;;;;12.73;57.64;94194.38;4990484;28;20022;-91
2023/05/11 07:27:25;;;;;;;15.27;10.30;;;;;;;12.77;57.45;94200.66;5005668;28;20094;-89
2023/05/11 07:29:51;;;;;;;17.58;10.15;;;;;;;12.81;56.94;94193.59;5005907;28;20221;-90
2023/05/11 07:32:17;;;;;;;14.10;9.32;;;;;;;12.81;56.75;94205.06;5004576;28;20092;-81
2023/05/11 07:34:43;;;;;;;16.58;9.98;;;;;;;12.83;56.15;94204.75;5003963;28;20025;-82
2023/05/11 07:37:09;;;;;;;19.23;9.48;;;;;;;12.83;57.07;94204.75;4986416;28;20026;-80
2023/05/11 07:39:34;;;;;;;14.68;9.75;;;;;;;12.91;57.17;94201.25;5003986;28;20030;-83
2023/05/11 07:41:59;;;;;;;14.10;9.32;;;;;;;13.02;56.45;94191.78;5003975;28;20049;-81
2023/05/11 07:44:25;;;;;;;17.05;9.07;;;;;;;13.11;56.13;94193.63;5003526;28;20069;-79
2023/05/11 07:46:51;;;;;;;20.92;9.60;;;;;;;13.24;55.82;94203.38;5003676;28;20304;-80
2023/05/11 07:49:16;;;;;;;13.80;9.45;;;;;;;13.30;55.20;94201.31;5003610;28;20029;-78
2023/05/11 07:51:44;;;;;;;16.00;9.45;;;;;;;13.35;54.99;94209.16;5003712;28;20213;-83
2023/05/11 07:54:10;;;;;;;13.65;8.73;;;;;;;13.40;55.87;94201.75;5004130;28;20057;-84
2023/05/11 07:56:35;;;;;;;21.33;9.45;;;;;;;13.57;55.02;94200.09;5004248;28;20027;-84
2023/05/11 07:59:00;;;;;;;15.02;9.30;;;;;;;13.60;54.56;94199.47;4987401;28;20140;-81
2023/05/11 08:01:26;;;;;;;13.30;8.98;;;;;;;13.65;53.41;94213.44;5004430;28;20030;-84
2023/05/11 08:03:51;;;;;;;10.90;8.15;;;;;;;13.68;52.96;94201.31;5003249;28;20216;-77
2023/05/11 08:06:17;;;;;;;15.00;9.30;;;;;;;13.75;52.62;94201.56;5001548;28;20061;-79
2023/05/11 08:08:42;;;;;;;15.10;9.15;;;;;;;13.83;52.04;94202.63;5001027;28;20026;-79
2023/05/11 08:11:08;;;;;;;14.00;8.18;;;;;;;13.90;51.68;94204.78;5000537;28;20033;-79
2023/05/11 08:13:33;;;;;;;14.48;7.95;;;;;;;13.90;51.23;94204.78;5001185;28;20026;-79
2023/05/11 08:15:59;;;;;;;12.00;7.40;;;;;;;13.98;51.16;94209.31;5001328;28;20026;-79
2023/05/11 08:18:25;;;;;;;13.23;8.40;;;;;;;14.09;50.69;94209.72;5000958;28;20077;-79
2023/05/11 08:20:51;;;;;;;13.73;8.88;;;;;;;14.12;50.07;94209.84;5001082;28;20076;-79
2023/05/11 08:23:17;;;;;;;10.73;8.02;;;;;;;14.24;50.37;94204.53;5000896;28;20260;-78
2023/05/11 08:25:53;;;;;;;15.10;8.48;;;;;;;14.22;50.34;94204.09;5001095;28;20033;-80
2023/05/11 08:28:20;;;;;;;13.40;7.90;;;;;;;14.32;50.13;94202.13;5000776;28;20029;-79
2023/05/11 08:30:45;;;;;;;10.43;7.93;;;;;;;14.44;50.00;94204.88;5000697;28;20030;-79
2023/05/11 08:33:12;;;;;;;12.02;7.35;;;;;;;14.50;49.15;94205.47;5000494;28;20278;-79
2023/05/11 08:35:39;;;;;;;12.05;8.63;;;;;;;14.53;49.00;94202.91;5000929;28;20111;-79
2023/05/11 08:38:05;;;;;;;11.75;8.35;;;;;;;14.50;49.38;94211.59;4999531;28;20023;-79
2023/05/11 08:40:30;;;;;;;14.23;8.27;;;;;;;14.50;49.03;94202.78;5002206;28;20022;-78
2023/05/11 08:42:58;;;;;;;16.00;8.55;;;;;;;14.52;49.32;94201.31;5002011;28;20088;-79
2023/05/11 08:45:26;;;;;;;10.02;7.95;;;;;;;14.47;49.05;94206.09;5002381;28;20325;-79
2023/05/11 08:47:52;;;;;;;13.07;8.02;;;;;;;14.40;48.72;94206.63;5002560;28;20037;-79
2023/05/11 08:50:18;;;;;;;13.90;8.07;;;;;;;14.41;48.77;94206.31;4985502;28;20023;-79
2023/05/11 08:52:43;;;;;;;9.45;7.68;;;;;;;14.43;49.10;94203.28;5002550;28;20046;-78
2023/05/11 08:55:09;;;;;;;10.90;7.78;;;;;;;14.59;49.28;94200.81;5003114;28;20028;-80
2023/05/11 08:57:35;;;;;;;16.40;8.48;;;;;;;14.68;48.76;94198.84;5002313;28;20025;-78
2023/05/11 09:00:04;;;;;;;8.98;7.40;;;;;;;14.72;48.37;94204.34;5003128;28;20336;-78
2023/05/11 09:02:31;;;;;;;13.02;8.32;;;;;;;14.83;48.18;94200.91;4985471;28;20018;-79
2023/05/11 09:04:58;;;;;;;11.35;7.93;;;;;;;14.93;48.05;94209.66;4985080;28;20030;-79
2023/05/11 09:07:25;;;;;;;11.82;8.07;;;;;;;15.13;47.89;94200.75;5002275;28;20042;-79
2023/05/11 09:09:51;;;;;;;12.38;6.35;;;;;;;15.33;47.41;94198.34;5002572;28;20217;-79
2023/05/11 09:12:17;;;;;;;9.43;5.30;;;;;;;15.48;46.91;94192.28;5002460;28;20026;-79
2023/05/11 09:14:43;;;;;;;9.00;5.28;;;;;;;15.53;46.66;94192.06;5003631;28;20030;-79
2023/05/11 09:17:08;;;;;;;8.68;5.07;;;;;;;15.54;46.54;94200.91;5006364;28;20030;-79
2023/05/11 09:19:33;;;;;;;10.35;6.05;;;;;;;15.57;47.09;94194.84;4988835;28;20049;-79
2023/05/11 09:21:59;;;;;;;8.77;5.70;;;;;;;15.59;46.87;94203.34;5006031;28;20027;-79
2023/05/11 09:24:25;;;;;;;10.20;6.30;;;;;;;15.51;47.35;94194.31;5005816;28;20331;-78
2023/05/11 09:27:07;;;;;;;10.52;5.80;;;;;;;15.50;46.97;94203.47;5006271;28;20364;-79
2023/05/11 09:29:32;;;;;;;8.50;5.72;;;;;;;15.35;47.83;94198.78;4988484;28;20105;-78
2023/05/11 09:31:57;;;;;;;9.90;6.63;;;;;;;15.20;47.36;94192.16;4989026;28;20193;-78
2023/05/11 09:34:23;;;;;;;11.52;6.50;;;;;;;15.11;48.10;94200.31;4988142;28;20018;-78
2023/05/11 09:36:51;;;;;;;14.48;5.22;;;;;;;15.07;48.61;94201.31;5005980;28;20026;-78
2023/05/11 09:39:20;;;;;;;8.80;5.18;;;;;;;15.10;48.78;94209.50;5005496;28;20081;-79
2023/05/11 09:41:45;;;;;;;8.45;5.03;;;;;;;15.14;48.60;94204.22;5005572;28;20219;-79
2023/05/11 09:44:14;;;;;;;7.25;4.75;;;;;;;15.08;48.84;94205.53;5005360;28;20024;-79
2023/05/11 09:46:42;;;;;;;11.88;5.22;;;;;;;15.05;49.07;94197.03;5005161;28;20198;-79
2023/05/11 09:49:09;;;;;;;8.55;5.25;;;;;;;15.14;49.55;94198.84;5005414;28;20050;-79
2023/05/11 09:51:39;;;;;;;11.43;4.32;;;;;;;15.31;48.54;94187.13;4987734;28;20101;-78
2023/05/11 09:54:19;;;;;;;10.50;4.80;;;;;;;15.33;48.46;94177.63;5005435;28;20046;-78
2023/05/11 09:56:47;;;;;;;10.25;5.15;;;;;;;15.33;48.75;94180.31;5005381;28;20022;-78
2023/05/11 09:59:36;;;;;;;13.80;4.75;;;;;;;15.32;48.89;94173.34;5004745;28;20025;-78
2023/05/11 10:02:15;;;;;;;50.20;9.40;;;;;;;15.38;48.98;94181.97;5004763;28;20088;-78
2023/05/11 10:04:41;;;;;;;10.05;5.60;;;;;;;15.53;48.81;94175.97;4987463;28;20046;-80
2023/05/11 10:07:06;;;;;;;8.27;5.13;;;;;;;15.58;47.94;94178.41;5005113;28;20022;-80
2023/05/11 10:09:32;;;;;;;18.42;5.70;;;;;;;15.57;48.14;94176.84;5005659;28;20018;-83
2023/05/11 10:12:00;;;;;;;11.27;5.85;;;;;;;15.48;48.77;94175.38;5005477;28;20034;-83
2023/05/11 10:14:27;;;;;;;9.40;6.03;;;;;;;15.38;48.91;94173.94;4988337;28;20019;-83
2023/05/11 10:16:54;;;;;;;8.05;5.22;;;;;;;15.34;48.57;94164.97;5005543;28;20018;-84
2023/05/11 10:19:20;;;;;;;7.43;4.32;;;;;;;15.18;49.20;94168.34;4987719;28;20030;-82
2023/05/11 10:21:46;;;;;;;8.57;4.60;;;;;;;15.23;48.73;94159.28;5005554;28;20201;-83
2023/05/11 10:24:13;;;;;;;8.30;4.80;;;;;;;15.27;49.07;94160.16;5005492;28;20279;-84
2023/05/11 10:26:41;;;;;;;8.70;4.55;;;;;;;15.26;49.77;94158.59;5005481;28;20065;-82
2023/05/11 10:29:08;;;;;;;9.23;5.18;;;;;;;15.29;49.08;94160.63;5005511;28;20029;-82
2023/05/11 10:31:35;;;;;;;8.05;4.88;;;;;;;15.41;48.70;94160.63;5005530;28;20026;-83
2023/05/11 10:34:02;;;;;;;7.28;5.18;;;;;;;15.49;48.77;94153.56;5005874;28;20029;-84
2023/05/11 10:36:29;;;;;;;7.45;5.28;;;;;;;15.62;48.90;94140.91;5005146;28;20026;-84
2023/05/11 10:38:54;;;;;;;10.85;5.60;;;;;;;15.85;48.15;94138.53;5005160;28;20033;-85
2023/05/11 10:41:23;;;;;;;16.88;5.05;;;;;;;15.88;47.75;94137.09;5005669;28;20019;-85
2023/05/11 10:44:18;;;;;;;9.02;5.00;;;;;;;15.81;47.89;94151.91;5004807;28;20031;-84
2023/05/11 10:47:12;;;;;;;7.65;4.68;;;;;;;15.84;48.03;94161.94;4987745;28;20022;-86
2023/05/11 10:50:13;;;;;;;9.70;4.13;;;;;;;15.83;48.27;94149.66;5004672;28;20029;-87
2023/05/11 10:53:05;;;;;;;9.98;5.15;;;;;;;15.80;47.91;94144.94;4987921;28;20026;-87
2023/05/11 10:56:02;;;;;;;9.07;4.57;;;;;;;15.86;47.57;94147.41;4989915;28;20026;-89
2023/05/11 10:58:48;;;;;;;8.23;4.75;;;;;;;15.91;47.68;94157.91;5006506;28;20030;-88
2023/05/11 11:01:19;;;;;;;12.77;4.57;;;;;;;16.04;47.29;94141.41;4988227;28;20026;-87
2023/05/11 11:03:56;;;;;;;10.93;4.57;;;;;;;16.15;46.68;94135.56;4987893;28;20038;-85
2023/05/11 11:06:23;;;;;;;9.00;4.53;;;;;;;16.15;46.57;94139.03;5005442;28;20062;-90
2023/05/11 11:09:18;;;;;;;12.43;4.50;;;;;;;16.27;46.70;94145.50;4988452;28;20030;-89
2023/05/11 11:11:45;;;;;;;9.23;4.90;;;;;;;16.39;46.63;94142.75;5003394;28;20030;-87
2023/05/11 11:14:13;;;;;;;11.60;4.32;;;;;;;16.50;46.03;94143.06;5004777;28;20018;-86
2023/05/11 11:16:40;;;;;;;9.85;4.43;;;;;;;16.60;45.76;94137.16;5005950;28;20018;-89
2023/05/11 11:19:28;;;;;;;12.02;4.63;;;;;;;16.80;45.78;94151.53;5005457;28;20023;-83
2023/05/11 11:21:54;;;;;;;8.32;3.60;;;;;;;16.81;45.40;94145.03;5003980;28;20034;-83
2023/05/11 11:24:38;;;;;;;12.27;4.28;;;;;;;16.82;45.33;94141.25;5004602;28;20029;-83
2023/05/11 11:27:07;;;;;;;10.43;4.10;;;;;;;16.86;44.49;94135.94;5004655;28;20080;-88
2023/05/11 11:29:34;;;;;;;8.02;3.90;;;;;;;16.82;44.81;94143.94;5005107;28;20026;-87
2023/05/11 11:32:18;;;;;;;9.52;4.07;;;;;;;16.65;45.76;94139.63;5005116;28;20026;-86
2023/05/11 11:34:44;;;;;;;9.43;3.58;;;;;;;16.66;45.13;94138.47;5004219;28;20224;-84